Time;durP1;ratioP1;P1;durP2;ratioP2;P2;SDS_P1;SDS_P2;PMS_P1;PMS_P2;Temp;Humidity;BMP_temperature;BMP_pressure;BME280_temperature;BME280_humidity;BME280_pressure;Samples;Min_cycle;Max_cycle;Signal;HPM_P1;HPM_P2
2022/07/10 00:00:14;;;;;;;2.40;2.12;;;;;;;26.89;42.28;100348.41;1751160;81;21548;-85
2022/07/10 00:02:41;;;;;;;2.00;1.80;;;;;;;26.89;42.30;100342.83;1751053;81;20959;-84
2022/07/10 00:05:09;;;;;;;2.20;1.95;;;;;;;26.90;42.30;100343.64;1751350;80;21815;-84
2022/07/10 00:07:35;;;;;;;2.52;2.00;;;;;;;26.89;42.29;100343.41;1751173;80;20951;-84
2022/07/10 00:10:03;;;;;;;2.37;1.90;;;;;;;26.89;42.34;100340.04;1750863;81;21030;-84
2022/07/10 00:12:29;;;;;;;3.37;2.25;;;;;;;26.88;42.33;100341.80;1751139;80;21048;-84
2022/07/10 00:14:56;;;;;;;2.37;2.05;;;;;;;26.89;42.35;100337.83;1732005;80;21081;-85
2022/07/10 00:17:22;;;;;;;2.22;2.00;;;;;;;26.88;42.36;100337.02;1722581;81;21162;-84
2022/07/10 00:19:49;;;;;;;3.33;1.98;;;;;;;26.89;42.37;100332.25;1751194;80;20932;-85
2022/07/10 00:22:16;;;;;;;2.75;2.00;;;;;;;26.90;42.39;100335.27;1751264;80;21002;-84
2022/07/10 00:24:42;;;;;;;3.80;1.98;;;;;;;26.88;42.36;100335.63;1749344;80;21117;-85
2022/07/10 00:27:08;;;;;;;2.40;2.20;;;;;;;26.88;42.38;100324.46;1732502;81;21047;-84
2022/07/10 00:29:35;;;;;;;2.50;2.30;;;;;;;26.88;42.37;100324.46;1732226;81;21137;-85
2022/07/10 00:32:01;;;;;;;2.52;2.30;;;;;;;26.89;42.38;100326.67;1731872;81;21059;-85
2022/07/10 00:34:28;;;;;;;2.58;2.00;;;;;;;26.88;42.41;100323.06;1732258;82;20983;-84
2022/07/10 00:36:54;;;;;;;2.05;1.80;;;;;;;26.88;42.37;100318.87;1732426;81;21099;-85
2022/07/10 00:39:21;;;;;;;2.42;2.20;;;;;;;26.87;42.38;100320.05;1732121;81;21035;-84
2022/07/10 00:41:47;;;;;;;2.37;1.95;;;;;;;26.87;42.37;100324.23;1732396;81;21578;-84
2022/07/10 00:44:14;;;;;;;2.30;1.92;;;;;;;26.88;42.37;100318.06;1726982;81;21049;-84
2022/07/10 00:46:40;;;;;;;2.55;2.10;;;;;;;26.87;42.37;100317.26;1722433;81;21001;-84
2022/07/10 00:49:07;;;;;;;2.27;2.08;;;;;;;26.88;42.38;100313.88;1722714;82;20939;-84
2022/07/10 00:51:33;;;;;;;2.75;2.20;;;;;;;26.87;42.40;100315.86;1730658;81;21033;-84
2022/07/10 00:54:00;;;;;;;3.17;2.00;;;;;;;26.88;42.38;100315.27;1722530;82;21784;-83
2022/07/10 00:56:32;;;;;;;2.42;2.02;;;;;;;26.87;42.40;100315.86;1722407;81;21003;-84
2022/07/10 00:58:59;;;;;;;2.20;1.90;;;;;;;26.87;42.38;100313.66;1722770;82;21050;-85
2022/07/10 01:01:25;;;;;;;2.30;2.10;;;;;;;26.86;42.41;100311.48;1722551;82;21079;-84
2022/07/10 01:03:52;;;;;;;2.30;2.02;;;;;;;26.86;42.42;100304.50;1722878;81;21485;-83
2022/07/10 01:06:18;;;;;;;2.45;2.00;;;;;;;26.87;42.42;100303.30;1722863;81;21215;-84
2022/07/10 01:08:45;;;;;;;2.60;2.00;;;;;;;26.87;42.42;100302.48;1722596;82;21018;-84
2022/07/10 01:11:11;;;;;;;2.40;2.12;;;;;;;26.87;42.42;100306.67;1722647;82;21037;-85
2022/07/10 01:13:44;;;;;;;2.15;1.67;;;;;;;26.87;42.42;100312.26;1722626;81;21556;-84
2022/07/10 01:16:13;;;;;;;2.70;2.27;;;;;;;26.87;42.41;100308.08;1722446;83;21572;-84
2022/07/10 01:18:40;;;;;;;2.95;2.10;;;;;;;26.86;42.42;100304.50;1722822;82;21040;-85
2022/07/10 01:21:07;;;;;;;2.80;1.95;;;;;;;26.86;42.41;100305.90;1730751;81;21468;-84
2022/07/10 01:23:33;;;;;;;2.72;2.08;;;;;;;26.86;42.41;100303.69;1715788;82;21117;-83
2022/07/10 01:26:01;;;;;;;2.37;2.08;;;;;;;26.87;42.43;100303.89;1741208;80;21076;-84
2022/07/10 01:28:28;;;;;;;2.35;1.80;;;;;;;26.86;42.44;100305.09;1754368;80;21064;-84
2022/07/10 01:30:55;;;;;;;2.05;1.85;;;;;;;26.85;42.43;100295.09;1754106;80;22010;-85
2022/07/10 01:33:22;;;;;;;2.05;1.67;;;;;;;26.85;42.43;100294.51;1754146;80;21089;-85
2022/07/10 01:35:54;;;;;;;2.20;1.80;;;;;;;26.85;42.44;100294.51;1754014;81;21352;-84
2022/07/10 01:38:21;;;;;;;2.65;1.90;;;;;;;26.85;42.44;100296.49;1754168;80;21461;-84
2022/07/10 01:40:47;;;;;;;2.58;1.92;;;;;;;26.85;42.45;100291.72;1754356;80;21069;-85
2022/07/10 01:43:14;;;;;;;2.25;1.98;;;;;;;26.85;42.45;100290.91;1754305;80;21113;-84
2022/07/10 01:45:40;;;;;;;2.35;2.12;;;;;;;26.84;42.45;100290.06;1754080;81;21061;-84
2022/07/10 01:48:07;;;;;;;2.35;2.15;;;;;;;26.86;42.45;100293.92;1754429;80;21057;-84
2022/07/10 01:50:39;;;;;;;3.55;2.30;;;;;;;26.85;42.48;100293.11;1753992;81;21064;-84
2022/07/10 01:53:06;;;;;;;3.42;2.22;;;;;;;26.85;42.49;100290.91;1754138;80;21123;-84
2022/07/10 01:55:32;;;;;;;1.95;1.75;;;;;;;26.85;42.50;100290.91;1754149;81;21622;-84
2022/07/10 01:57:59;;;;;;;2.77;2.27;;;;;;;26.84;42.50;100297.05;1754294;80;21057;-84
2022/07/10 02:00:25;;;;;;;2.62;1.82;;;;;;;26.85;42.51;100293.70;1753899;80;21049;-83
2022/07/10 02:05:37;;;;;;;2.30;1.98;;;;;;;26.84;42.52;100292.86;1754209;80;21044;-85
2022/07/10 02:08:05;;;;;;;2.35;2.00;;;;;;;26.84;42.51;100292.86;1754354;80;21750;-85
2022/07/10 02:10:32;;;;;;;2.27;2.00;;;;;;;26.83;42.51;100295.42;1754325;80;21006;-85
2022/07/10 02:12:59;;;;;;;3.45;2.00;;;;;;;26.84;42.52;100291.46;1753999;80;21065;-84
2022/07/10 02:15:25;;;;;;;2.17;1.98;;;;;;;26.83;42.51;100296.23;1754391;81;21105;-83
2022/07/10 02:17:52;;;;;;;2.47;2.20;;;;;;;26.84;42.49;100294.25;1754355;80;21470;-84
2022/07/10 02:20:18;;;;;;;3.45;1.90;;;;;;;26.83;42.47;100288.45;1753985;80;21475;-85
2022/07/10 02:22:45;;;;;;;2.80;2.47;;;;;;;26.82;42.49;100285.43;1754288;81;21009;-84
2022/07/10 02:25:11;;;;;;;2.50;1.90;;;;;;;26.83;42.49;100282.86;1754575;80;21022;-84
2022/07/10 02:27:38;;;;;;;3.40;2.20;;;;;;;26.82;42.45;100287.64;1753315;80;21554;-84
2022/07/10 02:30:06;;;;;;;3.17;2.12;;;;;;;26.83;42.45;100295.42;1754062;80;21081;-85
2022/07/10 02:32:33;;;;;;;2.25;2.05;;;;;;;26.83;42.44;100291.23;1754004;80;20914;-85
2022/07/10 02:34:59;;;;;;;2.52;2.00;;;;;;;26.82;42.43;100291.83;1753757;81;21054;-84
2022/07/10 02:37:26;;;;;;;2.30;2.00;;;;;;;26.83;42.43;100294.03;1753996;80;21400;-84
2022/07/10 02:39:52;;;;;;;2.45;2.15;;;;;;;26.84;42.37;100294.25;1753919;80;21126;-84
2022/07/10 02:42:19;;;;;;;2.30;2.00;;;;;;;26.82;42.34;100290.43;1753832;80;21119;-85
2022/07/10 02:44:45;;;;;;;2.35;1.90;;;;;;;26.82;42.32;100286.23;1754040;80;21626;-84
2022/07/10 02:47:12;;;;;;;2.30;1.85;;;;;;;26.82;42.32;100292.41;1754156;80;21509;-85
2022/07/10 02:49:38;;;;;;;2.15;1.87;;;;;;;26.83;42.32;100293.45;1753935;80;21037;-84
2022/07/10 02:52:05;;;;;;;2.95;1.87;;;;;;;26.83;42.34;100292.63;1751480;80;21065;-84
2022/07/10 02:54:31;;;;;;;1.87;1.75;;;;;;;26.82;42.36;100293.80;1753956;80;21100;-84
2022/07/10 02:57:05;;;;;;;2.10;1.77;;;;;;;26.83;42.36;100292.63;1753934;81;21321;-84
2022/07/10 02:59:32;;;;;;;2.15;1.90;;;;;;;26.83;42.37;100301.01;1754307;80;21488;-85
2022/07/10 03:01:58;;;;;;;2.60;1.90;;;;;;;26.83;42.38;100299.61;1754435;80;21513;-84
2022/07/10 03:04:25;;;;;;;4.22;2.47;;;;;;;26.82;42.39;100302.98;1754096;80;21100;-85
2022/07/10 03:06:51;;;;;;;2.35;1.70;;;;;;;26.83;42.42;100303.80;1754457;80;21053;-84
2022/07/10 03:09:18;;;;;;;2.42;2.05;;;;;;;26.82;42.40;100300.20;1754264;80;21081;-84
2022/07/10 03:11:44;;;;;;;2.80;2.22;;;;;;;26.81;42.42;100302.80;1753982;80;21057;-84
2022/07/10 03:14:10;;;;;;;2.37;1.90;;;;;;;26.82;42.40;100300.20;1754221;80;20997;-84
2022/07/10 03:16:37;;;;;;;2.37;1.90;;;;;;;26.82;42.43;100307.17;1754220;80;21065;-83
2022/07/10 03:19:03;;;;;;;2.35;2.02;;;;;;;26.81;42.44;100298.61;1754011;80;21092;-84
2022/07/10 03:21:30;;;;;;;4.42;2.35;;;;;;;26.81;42.44;100295.01;1754314;81;21105;-84
2022/07/10 03:23:57;;;;;;;2.87;2.27;;;;;;;26.81;42.46;100297.21;1754076;81;21566;-84
2022/07/10 03:26:23;;;;;;;3.08;2.10;;;;;;;26.82;42.47;100299.39;1753986;80;21227;-84
2022/07/10 03:28:50;;;;;;;2.50;2.08;;;;;;;26.82;42.49;100300.78;1754269;80;21116;-84
2022/07/10 03:31:16;;;;;;;2.35;2.10;;;;;;;26.81;42.51;100295.81;1754436;81;21049;-84
2022/07/10 03:33:43;;;;;;;2.83;2.20;;;;;;;26.81;42.50;100296.41;1754100;81;21106;-85
2022/07/10 03:36:09;;;;;;;2.30;2.02;;;;;;;26.82;42.52;100294.61;1754267;80;21104;-84
2022/07/10 03:38:36;;;;;;;2.98;1.95;;;;;;;26.81;42.52;100292.22;1754323;80;20986;-84
2022/07/10 03:41:02;;;;;;;4.42;2.37;;;;;;;26.81;42.56;100295.01;1754066;80;21552;-84
2022/07/10 03:43:28;;;;;;;2.20;2.00;;;;;;;26.81;42.53;100290.82;1754365;80;21026;-84
2022/07/10 03:45:56;;;;;;;2.45;2.17;;;;;;;26.80;42.54;100286.41;1751648;80;21124;-84
2022/07/10 03:48:22;;;;;;;2.10;1.90;;;;;;;26.80;42.57;100288.61;1731826;82;21038;-85
2022/07/10 03:50:51;;;;;;;2.22;2.02;;;;;;;26.80;42.59;100289.20;1751205;80;21023;-84
2022/07/10 03:53:19;;;;;;;2.40;2.20;;;;;;;26.80;42.60;100288.61;1731862;81;21018;-85
2022/07/10 03:55:46;;;;;;;3.08;2.00;;;;;;;26.81;42.62;100295.01;1751014;80;21046;-84
2022/07/10 03:58:12;;;;;;;2.25;1.90;;;;;;;26.81;42.64;100296.41;1751368;80;21127;-84
2022/07/10 04:00:42;;;;;;;2.95;2.22;;;;;;;26.79;42.65;100291.19;1751290;81;21011;-84
2022/07/10 04:03:07;;;;;;;2.70;2.22;;;;;;;26.80;42.65;100291.41;1751041;80;21050;-85
2022/07/10 04:05:34;;;;;;;3.27;2.05;;;;;;;26.79;42.68;100293.97;1751123;80;21074;-84
2022/07/10 04:08:01;;;;;;;2.80;2.33;;;;;;;26.80;42.70;100296.98;1751512;81;21023;-84
2022/07/10 04:10:28;;;;;;;2.83;2.15;;;;;;;26.80;42.72;100294.20;1750894;80;21678;-83
2022/07/10 04:13:00;;;;;;;2.60;2.17;;;;;;;26.81;42.73;100296.41;1751375;81;21109;-84
2022/07/10 04:15:27;;;;;;;2.65;2.05;;;;;;;26.80;42.76;100295.59;1751215;80;21034;-84
2022/07/10 04:17:53;;;;;;;2.45;2.10;;;;;;;26.81;42.78;100297.80;1751117;80;21029;-84
2022/07/10 04:20:20;;;;;;;2.33;2.12;;;;;;;26.80;42.78;100290.59;1751308;80;21042;-84
2022/07/10 04:22:46;;;;;;;2.58;2.00;;;;;;;26.80;42.80;100296.17;1751268;81;21481;-84
2022/07/10 04:25:13;;;;;;;2.60;2.40;;;;;;;26.80;42.83;100292.80;1750881;80;21043;-84
2022/07/10 04:27:39;;;;;;;2.80;2.33;;;;;;;26.80;42.83;100291.99;1751044;80;21011;-84
2022/07/10 04:30:06;;;;;;;3.00;2.17;;;;;;;26.80;42.84;100292.80;1751282;80;21038;-84
2022/07/10 04:32:33;;;;;;;2.47;2.20;;;;;;;26.80;42.84;100292.80;1731702;81;21093;-84
2022/07/10 04:35:00;;;;;;;4.85;2.47;;;;;;;26.80;42.84;100301.77;1751217;80;21141;-84
2022/07/10 04:37:28;;;;;;;3.80;2.58;;;;;;;26.79;42.86;100307.92;1751160;80;21549;-85
2022/07/10 04:39:54;;;;;;;2.72;2.25;;;;;;;26.80;42.85;100311.53;1751205;80;21046;-85
2022/07/10 04:42:21;;;;;;;2.95;2.33;;;;;;;26.79;42.87;100305.14;1751271;80;21062;-84
2022/07/10 04:44:47;;;;;;;2.80;2.08;;;;;;;26.80;42.87;100311.53;1751270;80;21592;-83
2022/07/10 04:47:14;;;;;;;2.87;2.40;;;;;;;26.80;42.86;100315.13;1751086;80;21615;-82
2022/07/10 04:49:40;;;;;;;3.33;2.40;;;;;;;26.79;42.87;100309.33;1751504;80;21031;-85
2022/07/10 04:52:07;;;;;;;3.95;2.25;;;;;;;26.80;42.86;100318.50;1751435;80;21034;-84
2022/07/10 04:54:33;;;;;;;3.45;2.25;;;;;;;26.80;42.87;100321.30;1751006;82;21039;-84
2022/07/10 04:57:00;;;;;;;2.72;2.30;;;;;;;26.80;42.89;100331.87;1751384;80;21019;-84
2022/07/10 04:59:27;;;;;;;2.52;2.20;;;;;;;26.80;42.91;100333.86;1751479;80;21127;-84
2022/07/10 05:01:54;;;;;;;2.62;2.22;;;;;;;26.79;42.92;100335.02;1750943;80;21082;-83
2022/07/10 05:04:20;;;;;;;4.10;2.33;;;;;;;26.79;42.95;100328.86;1751130;81;21019;-84
2022/07/10 05:06:46;;;;;;;2.20;2.00;;;;;;;26.79;42.95;100332.23;1751282;80;21516;-84
2022/07/10 05:09:13;;;;;;;2.50;2.30;;;;;;;26.80;42.97;100335.25;1751066;80;21205;-83
2022/07/10 05:11:39;;;;;;;3.37;2.30;;;;;;;26.78;42.98;100333.41;1751330;80;22201;-84
2022/07/10 05:14:06;;;;;;;2.80;2.42;;;;;;;26.79;43.00;100337.23;1751281;80;21082;-84
2022/07/10 05:16:33;;;;;;;3.40;2.17;;;;;;;26.79;43.02;100335.84;1750928;80;21034;-83
2022/07/10 05:18:59;;;;;;;2.62;2.42;;;;;;;26.79;43.02;100333.62;1751381;80;21019;-83
2022/07/10 05:21:26;;;;;;;2.60;2.27;;;;;;;26.79;43.04;100335.02;1751345;80;21078;-84
2022/07/10 05:23:52;;;;;;;3.00;2.40;;;;;;;26.79;43.05;100341.42;1751131;80;21823;-84
2022/07/10 05:26:19;;;;;;;2.70;2.30;;;;;;;26.79;43.06;100327.47;1751135;80;21098;-84
2022/07/10 05:28:45;;;;;;;2.27;2.08;;;;;;;26.79;43.05;100328.05;1750989;81;21512;-84
2022/07/10 05:31:18;;;;;;;3.70;2.27;;;;;;;26.79;43.08;100326.66;1750845;80;21086;-84
2022/07/10 05:33:44;;;;;;;2.77;2.47;;;;;;;26.79;43.12;100330.25;1751818;80;21671;-83
2022/07/10 05:36:11;;;;;;;2.47;2.27;;;;;;;26.78;43.13;100327.23;1754273;80;21800;-84
2022/07/10 05:38:37;;;;;;;2.37;2.17;;;;;;;26.78;43.13;100325.84;1753860;80;21014;-84
2022/07/10 05:41:04;;;;;;;2.67;2.30;;;;;;;26.79;43.16;100330.25;1754087;81;21404;-84
2022/07/10 05:43:36;;;;;;;4.30;2.55;;;;;;;26.79;43.16;100329.45;1754412;80;21006;-83
2022/07/10 05:46:03;;;;;;;4.40;2.50;;;;;;;26.78;43.17;100324.45;1754006;80;21044;-84
2022/07/10 05:48:29;;;;;;;3.37;2.30;;;;;;;26.79;43.17;100331.65;1754220;80;21233;-84
2022/07/10 05:50:56;;;;;;;2.80;2.30;;;;;;;26.79;43.19;100328.86;1754172;80;20996;-84
2022/07/10 05:53:22;;;;;;;3.50;2.27;;;;;;;26.78;43.18;100331.42;1753771;80;21013;-83
2022/07/10 05:55:49;;;;;;;2.87;2.27;;;;;;;26.78;43.21;100331.42;1754088;80;20969;-84
2022/07/10 05:58:16;;;;;;;2.58;2.37;;;;;;;26.77;43.24;100328.44;1754304;81;21080;-85
2022/07/10 06:00:43;;;;;;;3.10;2.42;;;;;;;26.78;43.23;100331.42;1754128;81;21132;-84
2022/07/10 06:03:10;;;;;;;3.45;2.35;;;;;;;26.79;43.25;100332.23;1754313;80;21003;-85
2022/07/10 06:05:37;;;;;;;3.60;2.50;;;;;;;26.78;43.25;100330.03;1754421;80;21037;-85
2022/07/10 06:08:04;;;;;;;2.75;2.42;;;;;;;26.78;43.26;100327.83;1754098;80;21033;-83
2022/07/10 06:10:31;;;;;;;2.83;2.58;;;;;;;26.78;43.30;100325.84;1754339;80;20982;-83
2022/07/10 06:12:57;;;;;;;3.17;2.35;;;;;;;26.79;43.31;100328.86;1754479;80;21127;-84
2022/07/10 06:15:24;;;;;;;2.90;2.17;;;;;;;26.78;43.34;100324.45;1754045;80;21114;-83
2022/07/10 06:17:50;;;;;;;2.58;2.25;;;;;;;26.78;43.34;100318.87;1754331;80;21516;-84
2022/07/10 06:20:17;;;;;;;3.20;2.47;;;;;;;26.79;43.36;100322.47;1754435;81;21448;-83
2022/07/10 06:22:43;;;;;;;2.70;2.35;;;;;;;26.79;43.35;100323.86;1754162;80;22292;-83
2022/07/10 06:25:16;;;;;;;3.85;2.52;;;;;;;26.79;43.40;100321.07;1754143;80;21507;-84
2022/07/10 06:27:42;;;;;;;2.90;2.30;;;;;;;26.78;43.42;100327.23;1749912;81;21006;-84
2022/07/10 06:30:10;;;;;;;2.50;2.30;;;;;;;26.80;43.44;100328.27;1722859;83;21093;-84
2022/07/10 06:32:36;;;;;;;3.33;2.40;;;;;;;26.78;43.44;100317.47;1722949;82;21043;-84
2022/07/10 06:35:03;;;;;;;3.37;2.50;;;;;;;26.78;43.47;100317.47;1723072;82;21081;-84
2022/07/10 06:37:31;;;;;;;3.70;2.40;;;;;;;26.79;43.47;100312.70;1704343;83;21520;-84
2022/07/10 06:39:57;;;;;;;2.67;2.42;;;;;;;26.80;43.50;100312.92;1723151;82;21062;-84
2022/07/10 06:42:24;;;;;;;2.55;2.35;;;;;;;26.80;43.50;100314.32;1723081;81;21026;-84
2022/07/10 06:44:50;;;;;;;2.40;2.20;;;;;;;26.79;43.53;100312.11;1722670;81;21034;-84
2022/07/10 06:50:07;;;;;;;2.67;2.27;;;;;;;26.80;43.57;100312.92;1722747;83;21970;-84
2022/07/10 06:52:40;;;;;;;3.05;2.27;;;;;;;26.79;43.60;100308.52;1722364;82;21006;-84
2022/07/10 06:55:07;;;;;;;3.10;2.42;;;;;;;26.81;43.55;100314.55;1722580;82;21065;-85
2022/07/10 06:57:33;;;;;;;4.03;2.50;;;;;;;26.81;43.58;100315.94;1722971;82;21025;-84
2022/07/10 07:00:00;;;;;;;5.67;2.92;;;;;;;26.81;43.59;100308.96;1722628;83;21069;-84
2022/07/10 07:02:26;;;;;;;2.98;2.37;;;;;;;26.82;43.60;100305.78;1722452;81;21174;-84
2022/07/10 07:04:53;;;;;;;3.62;2.35;;;;;;;26.82;43.60;100309.97;1722795;81;21421;-85
2022/07/10 07:07:19;;;;;;;2.27;2.02;;;;;;;26.84;43.60;100299.83;1722849;81;21006;-84
2022/07/10 07:09:49;;;;;;;2.47;2.27;;;;;;;26.84;43.60;100312.39;1722498;82;21113;-84
2022/07/10 07:12:14;;;;;;;2.60;2.20;;;;;;;26.84;43.61;100309.61;1723063;82;21014;-84
2022/07/10 07:14:40;;;;;;;2.42;2.22;;;;;;;26.84;43.60;100301.23;1722957;82;21078;-84
2022/07/10 07:17:08;;;;;;;2.72;2.42;;;;;;;26.86;43.59;100303.69;1722649;83;21100;-84
2022/07/10 07:25:08;;;;;;;3.22;2.42;;;;;;;26.87;43.62;100291.33;1730230;82;21040;-84
2022/07/10 07:27:36;;;;;;;3.08;2.35;;;;;;;26.88;43.61;100297.13;1712560;81;21166;-84
2022/07/10 07:30:04;;;;;;;2.60;2.35;;;;;;;26.88;43.61;100295.73;1748010;82;21089;-84
2022/07/10 07:32:31;;;;;;;2.45;2.25;;;;;;;26.89;43.59;100298.16;1748255;82;21504;-84
2022/07/10 07:34:58;;;;;;;2.65;2.45;;;;;;;26.88;43.61;100295.15;1748031;80;21109;-85
2022/07/10 07:37:38;;;;;;;4.72;2.55;;;;;;;26.90;43.61;100296.19;1748504;82;21233;-85
2022/07/10 07:40:08;;;;;;;2.50;2.30;;;;;;;26.89;43.61;100296.77;1748366;82;21794;-85
2022/07/10 07:42:34;;;;;;;2.98;2.42;;;;;;;26.89;43.58;100299.56;1748440;80;21003;-84
2022/07/10 07:45:01;;;;;;;2.50;2.20;;;;;;;26.90;43.60;100307.35;1748482;80;21592;-85
2022/07/10 07:47:27;;;;;;;2.40;2.20;;;;;;;26.90;43.58;100302.58;1748198;80;21727;-84
2022/07/10 07:49:54;;;;;;;2.40;2.00;;;;;;;26.90;43.60;100299.78;1748509;80;20935;-85
2022/07/10 07:52:26;;;;;;;2.60;2.20;;;;;;;26.92;43.54;100304.98;1748118;80;21090;-84
2022/07/10 07:54:52;;;;;;;3.70;2.37;;;;;;;26.92;43.47;100305.79;1748009;81;21035;-84
2022/07/10 07:57:19;;;;;;;2.45;2.25;;;;;;;26.92;43.48;100305.79;1748401;81;21058;-85
2022/07/10 07:59:45;;;;;;;2.40;2.20;;;;;;;26.92;43.49;100311.37;1748453;80;21098;-84
2022/07/10 08:02:12;;;;;;;3.98;2.40;;;;;;;26.93;43.49;100310.78;1748221;80;21498;-83
2022/07/10 08:04:38;;;;;;;3.08;2.70;;;;;;;26.93;43.48;100310.78;1748491;80;21822;-84
2022/07/10 08:07:05;;;;;;;3.05;2.33;;;;;;;26.94;43.45;100313.22;1748132;80;21027;-85
2022/07/10 08:09:31;;;;;;;2.77;2.45;;;;;;;26.93;43.47;100318.57;1747912;81;21170;-84
2022/07/10 08:11:58;;;;;;;2.70;2.50;;;;;;;26.93;43.47;100307.41;1748444;81;21010;-84
2022/07/10 08:14:24;;;;;;;2.37;2.15;;;;;;;26.94;43.41;100307.63;1748269;80;21635;-85
2022/07/10 08:16:51;;;;;;;3.17;2.52;;;;;;;26.94;43.34;100306.23;1747871;80;21264;-84
2022/07/10 08:19:17;;;;;;;3.33;2.60;;;;;;;26.95;43.35;100314.80;1747673;80;21608;-84
2022/07/10 08:21:44;;;;;;;3.50;2.58;;;;;;;26.95;43.29;100307.83;1748410;80;20967;-84
2022/07/10 08:24:10;;;;;;;2.83;2.33;;;;;;;26.95;43.24;100308.41;1747824;80;21053;-84
2022/07/10 08:26:37;;;;;;;2.50;2.27;;;;;;;26.94;43.20;100309.02;1748476;80;21524;-84
2022/07/10 08:29:03;;;;;;;2.60;2.30;;;;;;;26.94;43.17;100307.63;1748184;80;21749;-84
2022/07/10 08:31:30;;;;;;;3.15;2.58;;;;;;;26.95;43.20;100305.03;1748099;82;21047;-84
2022/07/10 08:33:56;;;;;;;2.67;2.47;;;;;;;26.95;43.17;100302.24;1749403;80;21046;-84
2022/07/10 08:36:23;;;;;;;3.50;2.42;;;;;;;26.95;43.15;100298.05;1751378;81;20997;-84
2022/07/10 08:38:49;;;;;;;2.45;2.17;;;;;;;26.96;43.15;100295.48;1751242;80;21517;-84
2022/07/10 08:41:16;;;;;;;2.83;2.37;;;;;;;26.95;43.19;100297.24;1751564;80;21064;-84
2022/07/10 08:43:42;;;;;;;2.87;2.58;;;;;;;26.96;43.20;100297.47;1751362;81;21085;-85
2022/07/10 08:46:10;;;;;;;3.20;2.40;;;;;;;26.95;43.21;100298.05;1751269;80;21057;-84
2022/07/10 08:48:36;;;;;;;3.85;2.20;;;;;;;26.95;43.21;100293.05;1748589;81;21181;-83
2022/07/10 08:51:05;;;;;;;3.35;2.42;;;;;;;26.95;43.23;100293.87;1751459;80;21037;-83
2022/07/10 08:53:32;;;;;;;3.33;2.47;;;;;;;26.95;43.23;100284.68;1751038;82;21472;-84
2022/07/10 08:55:59;;;;;;;2.87;2.58;;;;;;;26.95;43.22;100284.68;1751265;81;21038;-84
2022/07/10 08:58:27;;;;;;;2.72;2.15;;;;;;;26.95;43.22;100291.08;1751408;81;21062;-84
2022/07/10 09:00:53;;;;;;;4.25;2.27;;;;;;;26.96;43.23;100284.91;1751042;80;21101;-85
2022/07/10 09:03:26;;;;;;;2.60;2.40;;;;;;;26.95;43.22;100283.28;1751048;80;21061;-85
2022/07/10 09:05:52;;;;;;;2.80;2.50;;;;;;;26.96;43.22;100278.73;1751365;80;21152;-85
2022/07/10 09:08:28;;;;;;;3.85;2.62;;;;;;;26.96;43.22;100279.32;1751043;81;21105;-85
2022/07/10 09:11:16;;;;;;;3.27;2.55;;;;;;;26.95;43.20;100274.33;1751515;80;21467;-85
2022/07/10 09:13:52;;;;;;;2.67;2.27;;;;;;;26.97;43.21;100279.55;1751079;82;21002;-83
2022/07/10 09:16:28;;;;;;;2.50;2.10;;;;;;;26.95;43.22;100274.91;1749983;80;21331;-85
2022/07/10 09:18:55;;;;;;;2.95;2.40;;;;;;;26.95;43.20;100271.53;1749121;81;22144;-85
2022/07/10 09:21:22;;;;;;;2.40;2.10;;;;;;;26.95;43.14;100282.70;1751577;80;21069;-85
2022/07/10 09:23:48;;;;;;;2.67;2.25;;;;;;;26.95;42.96;100272.92;1751603;80;21042;-85
2022/07/10 09:26:16;;;;;;;2.95;2.45;;;;;;;26.95;42.88;100261.76;1751382;80;21061;-85
2022/07/10 09:28:42;;;;;;;3.00;2.50;;;;;;;26.95;42.79;100256.17;1748595;80;21492;-85
2022/07/10 09:31:09;;;;;;;3.17;2.30;;;;;;;26.96;42.83;100263.38;1741489;81;21571;-85
2022/07/10 09:33:37;;;;;;;4.40;2.92;;;;;;;26.96;42.87;100257.80;1740979;81;21014;-86
2022/07/10 09:36:12;;;;;;;3.20;2.42;;;;;;;26.97;42.80;100248.84;1741255;82;21070;-85
2022/07/10 09:38:49;;;;;;;2.67;2.37;;;;;;;26.96;42.78;100250.81;1740718;81;21568;-86
2022/07/10 09:41:21;;;;;;;3.22;2.35;;;;;;;26.97;42.73;100248.25;1741059;82;21090;-85
2022/07/10 09:44:03;;;;;;;3.37;2.60;;;;;;;26.97;42.67;100252.44;1740662;81;21032;-85
2022/07/10 09:46:38;;;;;;;3.52;3.02;;;;;;;26.97;42.69;100248.84;1740873;81;21113;-84
2022/07/10 09:49:11;;;;;;;3.50;2.55;;;;;;;26.97;42.61;100248.25;1751082;80;21037;-85
2022/07/10 09:51:44;;;;;;;3.30;3.00;;;;;;;26.97;42.50;100251.04;1751376;80;20997;-84
2022/07/10 09:54:11;;;;;;;3.90;2.85;;;;;;;26.97;42.38;100248.25;1750858;82;21599;-86
2022/07/10 09:56:47;;;;;;;2.60;2.40;;;;;;;26.97;42.31;100242.67;1751195;80;21888;-84
2022/07/10 09:59:15;;;;;;;2.87;2.52;;;;;;;26.97;42.27;100233.48;1749630;80;21469;-84
2022/07/10 10:01:50;;;;;;;2.85;2.60;;;;;;;26.97;42.25;100228.70;1740813;81;21031;-85
2022/07/10 10:04:24;;;;;;;5.72;2.95;;;;;;;26.98;42.26;100234.52;1750823;82;21036;-84
2022/07/10 10:06:56;;;;;;;3.00;2.58;;;;;;;26.98;42.20;100232.31;1751214;81;21064;-85
2022/07/10 10:09:28;;;;;;;3.20;2.75;;;;;;;26.98;42.16;100223.93;1750917;80;21265;-84
2022/07/10 10:12:17;;;;;;;3.10;2.80;;;;;;;26.98;42.13;100223.34;1750985;80;21576;-85
2022/07/10 10:14:44;;;;;;;4.33;2.80;;;;;;;26.98;42.18;100219.16;1750657;82;21093;-84
2022/07/10 10:17:11;;;;;;;3.30;3.00;;;;;;;26.98;42.13;100223.34;1750919;81;21123;-85
2022/07/10 10:22:21;;;;;;;3.12;2.83;;;;;;;26.99;42.05;100215.78;1750921;80;21109;-85
2022/07/10 10:24:48;;;;;;;3.40;3.10;;;;;;;26.98;41.99;100214.97;1750978;82;21033;-85
2022/07/10 10:27:15;;;;;;;4.03;2.90;;;;;;;26.98;42.03;100210.78;1751404;80;21032;-85
2022/07/10 10:29:41;;;;;;;3.55;2.80;;;;;;;26.98;42.07;100210.78;1750962;81;21093;-85
2022/07/10 10:32:09;;;;;;;2.80;2.60;;;;;;;26.99;42.03;100210.97;1751330;80;21058;-85
2022/07/10 10:34:56;;;;;;;3.72;3.17;;;;;;;26.98;42.05;100209.39;1751090;80;21162;-85
2022/07/10 10:37:33;;;;;;;3.92;3.12;;;;;;;26.98;41.96;100203.80;1746306;81;21050;-85
2022/07/10 10:40:00;;;;;;;3.02;2.72;;;;;;;26.99;41.93;100200.42;1740757;82;21038;-85
2022/07/10 10:42:38;;;;;;;3.02;2.80;;;;;;;26.98;41.94;100202.41;1751060;80;21014;-85
2022/07/10 10:45:32;;;;;;;3.12;2.77;;;;;;;26.98;42.00;100207.99;1751456;81;21666;-85
2022/07/10 10:48:05;;;;;;;3.05;2.67;;;;;;;26.98;41.91;100184.84;1751081;80;21845;-84
2022/07/10 10:50:51;;;;;;;3.55;3.20;;;;;;;26.99;41.91;100189.26;1751312;81;21536;-84
2022/07/10 10:53:28;;;;;;;3.20;2.83;;;;;;;26.97;41.86;100185.44;1751065;80;21097;-84
2022/07/10 10:56:07;;;;;;;3.92;3.52;;;;;;;26.98;41.85;100180.66;1751427;80;21084;-84
2022/07/10 10:58:41;;;;;;;4.10;3.22;;;;;;;26.97;41.75;100188.23;1751023;80;21019;-84
2022/07/10 11:01:26;;;;;;;4.17;2.98;;;;;;;26.98;41.75;100187.64;1751441;81;21889;-84
2022/07/10 11:04:07;;;;;;;3.17;2.83;;;;;;;26.97;41.71;100191.02;1751261;80;21416;-82
2022/07/10 11:06:48;;;;;;;4.05;3.15;;;;;;;26.97;41.68;100182.64;1751680;80;21543;-84
2022/07/10 11:09:33;;;;;;;3.77;2.87;;;;;;;26.98;41.60;100175.08;1740809;82;21509;-84
2022/07/10 11:12:12;;;;;;;3.85;2.67;;;;;;;26.97;41.52;100167.29;1751511;81;21035;-84
2022/07/10 11:14:42;;;;;;;3.87;3.20;;;;;;;26.98;41.62;100173.09;1751078;81;21034;-84
2022/07/10 11:17:09;;;;;;;4.37;3.00;;;;;;;26.97;41.57;100167.29;1751438;81;21551;-84
2022/07/10 11:19:36;;;;;;;3.90;3.12;;;;;;;26.97;41.52;100157.52;1751389;81;21078;-83
2022/07/10 11:22:24;;;;;;;2.90;2.58;;;;;;;26.98;41.56;100155.53;1751109;80;21046;-83
2022/07/10 11:25:13;;;;;;;5.20;2.87;;;;;;;26.98;41.72;100166.70;1751381;80;21097;-84
2022/07/10 11:28:09;;;;;;;4.28;3.00;;;;;;;26.98;41.69;100170.89;1751263;80;21065;-84
2022/07/10 11:30:51;;;;;;;3.35;3.05;;;;;;;26.99;41.56;100158.55;1740750;82;21010;-84
2022/07/10 11:33:20;;;;;;;3.77;3.20;;;;;;;26.98;41.47;100154.14;1747443;81;21073;-84
2022/07/10 11:35:47;;;;;;;3.33;3.02;;;;;;;26.97;41.42;100156.13;1741149;81;21022;-85
2022/07/10 11:38:25;;;;;;;3.62;3.30;;;;;;;26.98;41.40;100152.74;1751553;80;21534;-85
2022/07/10 11:40:56;;;;;;;3.72;2.80;;;;;;;26.97;41.38;100172.87;1751110;80;21056;-84
2022/07/10 11:43:23;;;;;;;3.47;3.17;;;;;;;26.98;41.38;100198.81;1749522;81;21139;-85